sensor_id;sensor_type;location;lat;lon;timestamp;P1;durP1;ratioP1;P2;durP2;ratioP2
64419;SDS011;50745;48.170;14.516;2022-11-20T00:00:21;18.48;;;14.43;;
64419;SDS011;50745;48.170;14.516;2022-11-20T00:10:23;18.92;;;14.40;;
64419;SDS011;50745;48.170;14.516;2022-11-20T00:20:24;19.13;;;14.70;;
64419;SDS011;50745;48.170;14.516;2022-11-20T00:30:25;18.83;;;14.25;;
64419;SDS011;50745;48.170;14.516;2022-11-20T00:40:27;19.73;;;14.75;;
64419;SDS011;50745;48.170;14.516;2022-11-20T00:50:28;19.77;;;15.52;;
64419;SDS011;50745;48.170;14.516;2022-11-20T01:00:29;18.75;;;15.15;;
64419;SDS011;50745;48.170;14.516;2022-11-20T01:10:30;16.88;;;14.15;;
64419;SDS011;50745;48.170;14.516;2022-11-20T01:20:35;18.52;;;14.48;;
64419;SDS011;50745;48.170;14.516;2022-11-20T01:30:36;19.67;;;14.23;;
64419;SDS011;50745;48.170;14.516;2022-11-20T01:40:38;19.67;;;14.52;;
64419;SDS011;50745;48.170;14.516;2022-11-20T01:50:39;19.08;;;15.40;;
64419;SDS011;50745;48.170;14.516;2022-11-20T02:00:44;19.77;;;15.07;;
64419;SDS011;50745;48.170;14.516;2022-11-20T02:10:45;20.83;;;15.27;;
64419;SDS011;50745;48.170;14.516;2022-11-20T02:20:48;19.95;;;14.32;;
64419;SDS011;50745;48.170;14.516;2022-11-20T02:30:51;19.08;;;14.75;;
64419;SDS011;50745;48.170;14.516;2022-11-20T02:40:52;20.20;;;16.08;;
64419;SDS011;50745;48.170;14.516;2022-11-20T02:50:53;20.27;;;15.48;;
64419;SDS011;50745;48.170;14.516;2022-11-20T03:00:54;20.48;;;15.00;;
64419;SDS011;50745;48.170;14.516;2022-11-20T03:10:56;19.80;;;15.65;;
64419;SDS011;50745;48.170;14.516;2022-11-20T03:20:57;20.02;;;15.52;;
64419;SDS011;50745;48.170;14.516;2022-11-20T03:31:04;21.40;;;15.55;;
64419;SDS011;50745;48.170;14.516;2022-11-20T03:41:23;20.08;;;15.18;;
64419;SDS011;50745;48.170;14.516;2022-11-20T03:51:28;19.15;;;14.55;;
64419;SDS011;50745;48.170;14.516;2022-11-20T04:01:31;19.38;;;14.95;;
64419;SDS011;50745;48.170;14.516;2022-11-20T04:11:34;19.73;;;14.85;;
64419;SDS011;50745;48.170;14.516;2022-11-20T04:21:36;18.30;;;14.43;;
64419;SDS011;50745;48.170;14.516;2022-11-20T04:31:37;18.60;;;14.50;;
64419;SDS011;50745;48.170;14.516;2022-11-20T04:41:38;17.55;;;13.57;;
64419;SDS011;50745;48.170;14.516;2022-11-20T04:51:39;18.17;;;13.27;;
64419;SDS011;50745;48.170;14.516;2022-11-20T05:01:40;17.10;;;13.18;;
64419;SDS011;50745;48.170;14.516;2022-11-20T05:11:42;17.50;;;13.77;;
64419;SDS011;50745;48.170;14.516;2022-11-20T05:21:43;16.00;;;12.55;;
64419;SDS011;50745;48.170;14.516;2022-11-20T05:31:44;15.05;;;11.95;;
64419;SDS011;50745;48.170;14.516;2022-11-20T05:41:45;15.10;;;11.98;;
64419;SDS011;50745;48.170;14.516;2022-11-20T05:51:47;15.82;;;12.32;;
64419;SDS011;50745;48.170;14.516;2022-11-20T06:01:48;15.38;;;12.27;;
64419;SDS011;50745;48.170;14.516;2022-11-20T06:11:49;13.82;;;11.38;;
64419;SDS011;50745;48.170;14.516;2022-11-20T06:21:50;13.80;;;10.93;;
64419;SDS011;50745;48.170;14.516;2022-11-20T06:31:52;14.85;;;11.75;;
64419;SDS011;50745;48.170;14.516;2022-11-20T06:41:53;14.55;;;11.70;;
64419;SDS011;50745;48.170;14.516;2022-11-20T06:51:54;13.57;;;10.88;;
64419;SDS011;50745;48.170;14.516;2022-11-20T07:01:56;13.50;;;11.20;;
64419;SDS011;50745;48.170;14.516;2022-11-20T07:11:57;14.25;;;11.27;;
64419;SDS011;50745;48.170;14.516;2022-11-20T07:21:58;13.85;;;11.05;;
64419;SDS011;50745;48.170;14.516;2022-11-20T07:31:59;13.70;;;10.77;;
64419;SDS011;50745;48.170;14.516;2022-11-20T07:42:01;14.82;;;11.38;;
64419;SDS011;50745;48.170;14.516;2022-11-20T07:52:02;13.48;;;10.88;;
64419;SDS011;50745;48.170;14.516;2022-11-20T08:02:03;12.68;;;10.70;;
64419;SDS011;50745;48.170;14.516;2022-11-20T08:12:04;13.68;;;10.57;;
64419;SDS011;50745;48.170;14.516;2022-11-20T08:22:24;14.13;;;11.18;;
64419;SDS011;50745;48.170;14.516;2022-11-20T08:32:26;14.02;;;11.27;;
64419;SDS011;50745;48.170;14.516;2022-11-20T08:42:27;13.18;;;10.82;;
64419;SDS011;50745;48.170;14.516;2022-11-20T08:52:28;12.95;;;10.68;;
64419;SDS011;50745;48.170;14.516;2022-11-20T09:02:29;14.00;;;11.63;;
64419;SDS011;50745;48.170;14.516;2022-11-20T09:12:31;14.40;;;11.52;;
64419;SDS011;50745;48.170;14.516;2022-11-20T09:22:32;13.93;;;10.75;;
64419;SDS011;50745;48.170;14.516;2022-11-20T09:32:33;14.05;;;11.77;;
64419;SDS011;50745;48.170;14.516;2022-11-20T09:42:43;13.18;;;10.93;;
64419;SDS011;50745;48.170;14.516;2022-11-20T10:03:37;14.60;;;12.18;;
64419;SDS011;50745;48.170;14.516;2022-11-20T10:44:21;16.58;;;12.65;;
64419;SDS011;50745;48.170;14.516;2022-11-20T10:54:52;11.90;;;9.65;;
64419;SDS011;50745;48.170;14.516;2022-11-20T11:04:56;10.52;;;8.65;;
64419;SDS011;50745;48.170;14.516;2022-11-20T11:14:59;10.32;;;7.72;;
64419;SDS011;50745;48.170;14.516;2022-11-20T11:25:00;9.60;;;7.05;;
64419;SDS011;50745;48.170;14.516;2022-11-20T11:35:03;7.63;;;5.90;;
64419;SDS011;50745;48.170;14.516;2022-11-20T11:45:06;6.90;;;5.10;;
64419;SDS011;50745;48.170;14.516;2022-11-20T11:55:09;6.65;;;4.75;;
64419;SDS011;50745;48.170;14.516;2022-11-20T12:15:30;7.10;;;5.22;;
64419;SDS011;50745;48.170;14.516;2022-11-20T12:25:34;8.93;;;5.75;;
64419;SDS011;50745;48.170;14.516;2022-11-20T13:26:19;6.85;;;4.85;;
64419;SDS011;50745;48.170;14.516;2022-11-20T13:36:22;7.00;;;5.47;;
64419;SDS011;50745;48.170;14.516;2022-11-20T13:46:34;6.38;;;5.05;;
64419;SDS011;50745;48.170;14.516;2022-11-20T14:06:48;6.60;;;5.20;;
64419;SDS011;50745;48.170;14.516;2022-11-20T14:16:51;6.68;;;5.07;;
64419;SDS011;50745;48.170;14.516;2022-11-20T14:26:52;7.03;;;5.75;;
64419;SDS011;50745;48.170;14.516;2022-11-20T14:36:56;7.30;;;5.85;;
64419;SDS011;50745;48.170;14.516;2022-11-20T14:46:59;7.60;;;5.90;;
64419;SDS011;50745;48.170;14.516;2022-11-20T14:57:01;7.38;;;5.57;;
64419;SDS011;50745;48.170;14.516;2022-11-20T15:07:03;8.55;;;6.30;;
64419;SDS011;50745;48.170;14.516;2022-11-20T15:17:04;7.63;;;5.68;;
64419;SDS011;50745;48.170;14.516;2022-11-20T15:27:06;8.60;;;6.07;;
64419;SDS011;50745;48.170;14.516;2022-11-20T15:37:08;8.80;;;7.00;;
64419;SDS011;50745;48.170;14.516;2022-11-20T15:47:10;7.75;;;6.28;;
64419;SDS011;50745;48.170;14.516;2022-11-20T15:57:11;8.82;;;7.18;;
64419;SDS011;50745;48.170;14.516;2022-11-20T16:07:13;9.38;;;7.10;;
64419;SDS011;50745;48.170;14.516;2022-11-20T16:17:15;7.50;;;5.97;;
64419;SDS011;50745;48.170;14.516;2022-11-20T16:27:16;7.25;;;5.10;;
64419;SDS011;50745;48.170;14.516;2022-11-20T16:37:17;6.10;;;4.10;;
64419;SDS011;50745;48.170;14.516;2022-11-20T16:47:19;6.18;;;3.88;;
64419;SDS011;50745;48.170;14.516;2022-11-20T16:57:20;4.60;;;3.30;;
64419;SDS011;50745;48.170;14.516;2022-11-20T17:07:21;4.28;;;3.25;;
64419;SDS011;50745;48.170;14.516;2022-11-20T17:17:22;5.18;;;3.20;;
64419;SDS011;50745;48.170;14.516;2022-11-20T17:27:23;5.30;;;2.92;;
64419;SDS011;50745;48.170;14.516;2022-11-20T17:37:25;4.10;;;2.80;;
64419;SDS011;50745;48.170;14.516;2022-11-20T17:47:27;3.83;;;2.60;;
64419;SDS011;50745;48.170;14.516;2022-11-20T17:57:48;4.03;;;2.60;;
64419;SDS011;50745;48.170;14.516;2022-11-20T18:08:03;4.35;;;2.63;;
64419;SDS011;50745;48.170;14.516;2022-11-20T18:18:04;3.03;;;2.30;;
64419;SDS011;50745;48.170;14.516;2022-11-20T18:28:09;6.65;;;5.63;;
64419;SDS011;50745;48.170;14.516;2022-11-20T18:38:10;4.90;;;3.78;;
64419;SDS011;50745;48.170;14.516;2022-11-20T18:48:12;4.43;;;3.72;;
64419;SDS011;50745;48.170;14.516;2022-11-20T19:10:00;4.03;;;2.90;;
64419;SDS011;50745;48.170;14.516;2022-11-20T19:20:23;3.80;;;2.80;;
64419;SDS011;50745;48.170;14.516;2022-11-20T19:30:51;3.23;;;2.53;;
64419;SDS011;50745;48.170;14.516;2022-11-20T19:40:52;3.40;;;2.50;;
64419;SDS011;50745;48.170;14.516;2022-11-20T20:13:12;3.20;;;2.20;;
64419;SDS011;50745;48.170;14.516;2022-11-20T20:23:14;3.58;;;2.38;;
64419;SDS011;50745;48.170;14.516;2022-11-20T20:33:31;3.20;;;2.15;;
64419;SDS011;50745;48.170;14.516;2022-11-20T20:43:33;2.70;;;2.22;;
64419;SDS011;50745;48.170;14.516;2022-11-20T20:54:37;2.00;;;1.80;;
64419;SDS011;50745;48.170;14.516;2022-11-20T21:15:30;3.42;;;2.30;;
64419;SDS011;50745;48.170;14.516;2022-11-20T21:25:34;2.88;;;2.00;;
64419;SDS011;50745;48.170;14.516;2022-11-20T21:35:58;2.55;;;1.90;;
64419;SDS011;50745;48.170;14.516;2022-11-20T21:46:01;2.53;;;1.85;;
64419;SDS011;50745;48.170;14.516;2022-11-20T21:56:25;2.42;;;1.77;;
64419;SDS011;50745;48.170;14.516;2022-11-20T22:06:46;1.90;;;1.70;;
64419;SDS011;50745;48.170;14.516;2022-11-20T22:16:49;1.83;;;1.63;;
64419;SDS011;50745;48.170;14.516;2022-11-20T22:26:54;1.80;;;1.60;;
64419;SDS011;50745;48.170;14.516;2022-11-20T22:36:55;2.17;;;1.75;;
64419;SDS011;50745;48.170;14.516;2022-11-20T22:46:57;1.63;;;1.52;;
64419;SDS011;50745;48.170;14.516;2022-11-20T22:56:58;1.40;;;1.30;;
64419;SDS011;50745;48.170;14.516;2022-11-20T23:29:55;1.60;;;1.50;;
64419;SDS011;50745;48.170;14.516;2022-11-20T23:50:28;1.90;;;1.52;;
